sensor_id;sensor_type;location;lat;lon;timestamp;P1;durP1;ratioP1;P2;durP2;ratioP2
55065;SDS011;40964;42.114;24.220;2022-07-29T00:00:42;13.25;;;8.10;;
55065;SDS011;40964;42.114;24.220;2022-07-29T00:03:11;13.13;;;7.68;;
55065;SDS011;40964;42.114;24.220;2022-07-29T00:05:40;11.02;;;7.43;;
55065;SDS011;40964;42.114;24.220;2022-07-29T00:08:07;10.55;;;7.45;;
55065;SDS011;40964;42.114;24.220;2022-07-29T00:10:33;10.98;;;7.35;;
55065;SDS011;40964;42.114;24.220;2022-07-29T00:12:59;12.02;;;7.30;;
55065;SDS011;40964;42.114;24.220;2022-07-29T00:15:25;10.82;;;6.88;;
55065;SDS011;40964;42.114;24.220;2022-07-29T00:17:50;15.68;;;7.32;;
55065;SDS011;40964;42.114;24.220;2022-07-29T00:20:16;10.88;;;6.80;;
55065;SDS011;40964;42.114;24.220;2022-07-29T00:22:42;10.60;;;6.72;;
55065;SDS011;40964;42.114;24.220;2022-07-29T00:25:07;9.40;;;6.35;;
55065;SDS011;40964;42.114;24.220;2022-07-29T00:27:36;8.43;;;6.32;;
55065;SDS011;40964;42.114;24.220;2022-07-29T00:30:03;11.25;;;7.10;;
55065;SDS011;40964;42.114;24.220;2022-07-29T00:32:30;8.35;;;6.35;;
55065;SDS011;40964;42.114;24.220;2022-07-29T00:34:55;10.25;;;6.53;;
55065;SDS011;40964;42.114;24.220;2022-07-29T00:37:39;10.02;;;6.50;;
55065;SDS011;40964;42.114;24.220;2022-07-29T00:40:05;8.02;;;6.32;;
55065;SDS011;40964;42.114;24.220;2022-07-29T00:42:40;16.40;;;6.20;;
55065;SDS011;40964;42.114;24.220;2022-07-29T00:45:07;10.57;;;5.85;;
55065;SDS011;40964;42.114;24.220;2022-07-29T00:47:33;8.25;;;6.00;;
55065;SDS011;40964;42.114;24.220;2022-07-29T00:49:58;10.57;;;6.07;;
55065;SDS011;40964;42.114;24.220;2022-07-29T00:52:24;12.73;;;5.82;;
55065;SDS011;40964;42.114;24.220;2022-07-29T00:54:50;8.25;;;5.47;;
55065;SDS011;40964;42.114;24.220;2022-07-29T00:57:15;8.05;;;5.30;;
55065;SDS011;40964;42.114;24.220;2022-07-29T00:59:42;8.68;;;5.85;;
55065;SDS011;40964;42.114;24.220;2022-07-29T01:02:07;9.25;;;6.28;;
55065;SDS011;40964;42.114;24.220;2022-07-29T01:04:33;8.57;;;5.82;;
55065;SDS011;40964;42.114;24.220;2022-07-29T01:07:00;8.00;;;5.22;;
55065;SDS011;40964;42.114;24.220;2022-07-29T01:09:27;7.25;;;5.40;;
55065;SDS011;40964;42.114;24.220;2022-07-29T01:11:53;8.25;;;5.65;;
55065;SDS011;40964;42.114;24.220;2022-07-29T01:14:19;9.38;;;5.80;;
55065;SDS011;40964;42.114;24.220;2022-07-29T01:16:51;9.15;;;5.63;;
55065;SDS011;40964;42.114;24.220;2022-07-29T01:22:53;9.45;;;5.10;;
55065;SDS011;40964;42.114;24.220;2022-07-29T01:25:30;7.32;;;5.47;;
55065;SDS011;40964;42.114;24.220;2022-07-29T01:30:35;7.72;;;5.40;;
55065;SDS011;40964;42.114;24.220;2022-07-29T01:33:07;7.78;;;5.35;;
55065;SDS011;40964;42.114;24.220;2022-07-29T01:35:38;7.95;;;5.78;;
55065;SDS011;40964;42.114;24.220;2022-07-29T01:38:09;7.82;;;5.30;;
55065;SDS011;40964;42.114;24.220;2022-07-29T01:40:45;12.43;;;5.45;;
55065;SDS011;40964;42.114;24.220;2022-07-29T01:43:15;7.43;;;4.97;;
55065;SDS011;40964;42.114;24.220;2022-07-29T01:45:48;7.00;;;5.07;;
55065;SDS011;40964;42.114;24.220;2022-07-29T01:48:19;7.00;;;5.00;;
55065;SDS011;40964;42.114;24.220;2022-07-29T01:50:50;8.30;;;4.85;;
55065;SDS011;40964;42.114;24.220;2022-07-29T01:53:22;8.95;;;5.53;;
55065;SDS011;40964;42.114;24.220;2022-07-29T01:55:52;7.90;;;4.95;;
55065;SDS011;40964;42.114;24.220;2022-07-29T01:58:19;8.27;;;5.55;;
55065;SDS011;40964;42.114;24.220;2022-07-29T02:00:46;8.35;;;5.22;;
55065;SDS011;40964;42.114;24.220;2022-07-29T02:03:14;8.00;;;5.05;;
55065;SDS011;40964;42.114;24.220;2022-07-29T02:05:42;5.70;;;4.68;;
55065;SDS011;40964;42.114;24.220;2022-07-29T02:08:13;6.32;;;4.63;;
55065;SDS011;40964;42.114;24.220;2022-07-29T02:10:41;7.60;;;4.97;;
55065;SDS011;40964;42.114;24.220;2022-07-29T02:13:09;7.70;;;5.10;;
55065;SDS011;40964;42.114;24.220;2022-07-29T02:15:37;8.18;;;5.00;;
55065;SDS011;40964;42.114;24.220;2022-07-29T02:18:07;7.70;;;4.75;;
55065;SDS011;40964;42.114;24.220;2022-07-29T02:20:36;6.25;;;4.50;;
55065;SDS011;40964;42.114;24.220;2022-07-29T02:23:05;10.20;;;4.68;;
55065;SDS011;40964;42.114;24.220;2022-07-29T02:25:35;10.25;;;4.43;;
55065;SDS011;40964;42.114;24.220;2022-07-29T02:28:02;5.75;;;4.40;;
55065;SDS011;40964;42.114;24.220;2022-07-29T02:30:29;10.13;;;5.38;;
55065;SDS011;40964;42.114;24.220;2022-07-29T02:32:56;6.22;;;4.50;;
55065;SDS011;40964;42.114;24.220;2022-07-29T02:35:23;6.22;;;4.57;;
55065;SDS011;40964;42.114;24.220;2022-07-29T02:37:49;7.47;;;4.72;;
55065;SDS011;40964;42.114;24.220;2022-07-29T02:40:34;7.47;;;4.82;;
55065;SDS011;40964;42.114;24.220;2022-07-29T02:43:03;9.98;;;4.95;;
55065;SDS011;40964;42.114;24.220;2022-07-29T02:45:32;7.18;;;4.57;;
55065;SDS011;40964;42.114;24.220;2022-07-29T02:47:59;6.13;;;4.32;;
55065;SDS011;40964;42.114;24.220;2022-07-29T02:50:32;6.95;;;4.68;;
55065;SDS011;40964;42.114;24.220;2022-07-29T02:53:11;6.95;;;4.78;;
55065;SDS011;40964;42.114;24.220;2022-07-29T02:55:45;6.93;;;4.63;;
55065;SDS011;40964;42.114;24.220;2022-07-29T02:58:21;7.93;;;5.22;;
55065;SDS011;40964;42.114;24.220;2022-07-29T03:00:53;7.65;;;4.53;;
55065;SDS011;40964;42.114;24.220;2022-07-29T03:03:21;9.80;;;4.75;;
55065;SDS011;40964;42.114;24.220;2022-07-29T03:05:53;7.07;;;4.45;;
55065;SDS011;40964;42.114;24.220;2022-07-29T03:08:21;8.00;;;4.68;;
55065;SDS011;40964;42.114;24.220;2022-07-29T03:10:48;7.53;;;4.90;;
55065;SDS011;40964;42.114;24.220;2022-07-29T03:13:14;10.60;;;4.97;;
55065;SDS011;40964;42.114;24.220;2022-07-29T03:15:42;7.70;;;4.20;;
55065;SDS011;40964;42.114;24.220;2022-07-29T03:18:09;8.00;;;4.63;;
55065;SDS011;40964;42.114;24.220;2022-07-29T03:20:35;5.30;;;4.30;;
55065;SDS011;40964;42.114;24.220;2022-07-29T03:23:02;5.55;;;4.15;;
55065;SDS011;40964;42.114;24.220;2022-07-29T03:25:29;6.10;;;4.45;;
55065;SDS011;40964;42.114;24.220;2022-07-29T03:27:55;8.10;;;4.10;;
55065;SDS011;40964;42.114;24.220;2022-07-29T03:30:21;10.55;;;4.95;;
55065;SDS011;40964;42.114;24.220;2022-07-29T03:32:48;6.40;;;5.00;;
55065;SDS011;40964;42.114;24.220;2022-07-29T03:35:14;9.07;;;5.35;;
55065;SDS011;40964;42.114;24.220;2022-07-29T03:37:42;8.18;;;5.40;;
55065;SDS011;40964;42.114;24.220;2022-07-29T03:40:08;9.57;;;5.43;;
55065;SDS011;40964;42.114;24.220;2022-07-29T03:42:36;6.45;;;5.30;;
55065;SDS011;40964;42.114;24.220;2022-07-29T03:45:05;9.32;;;5.50;;
55065;SDS011;40964;42.114;24.220;2022-07-29T03:47:34;8.63;;;5.90;;
55065;SDS011;40964;42.114;24.220;2022-07-29T03:50:05;11.93;;;6.90;;
55065;SDS011;40964;42.114;24.220;2022-07-29T03:52:32;13.82;;;7.97;;
55065;SDS011;40964;42.114;24.220;2022-07-29T03:54:58;13.07;;;7.45;;
55065;SDS011;40964;42.114;24.220;2022-07-29T03:57:24;12.18;;;7.43;;
55065;SDS011;40964;42.114;24.220;2022-07-29T03:59:53;11.88;;;7.32;;
55065;SDS011;40964;42.114;24.220;2022-07-29T04:02:19;10.93;;;6.85;;
55065;SDS011;40964;42.114;24.220;2022-07-29T04:04:46;10.07;;;6.47;;
55065;SDS011;40964;42.114;24.220;2022-07-29T04:07:12;14.02;;;6.60;;
55065;SDS011;40964;42.114;24.220;2022-07-29T04:09:39;9.35;;;6.25;;
55065;SDS011;40964;42.114;24.220;2022-07-29T04:12:05;9.93;;;5.80;;
55065;SDS011;40964;42.114;24.220;2022-07-29T04:14:33;13.27;;;6.47;;
55065;SDS011;40964;42.114;24.220;2022-07-29T04:17:03;10.27;;;6.53;;
55065;SDS011;40964;42.114;24.220;2022-07-29T04:19:29;17.38;;;7.10;;
55065;SDS011;40964;42.114;24.220;2022-07-29T04:21:55;11.30;;;7.25;;
55065;SDS011;40964;42.114;24.220;2022-07-29T04:24:22;12.02;;;6.93;;
55065;SDS011;40964;42.114;24.220;2022-07-29T04:26:47;13.65;;;6.90;;
55065;SDS011;40964;42.114;24.220;2022-07-29T04:29:13;9.18;;;5.88;;
55065;SDS011;40964;42.114;24.220;2022-07-29T04:31:43;10.30;;;6.65;;
55065;SDS011;40964;42.114;24.220;2022-07-29T04:34:09;10.18;;;6.07;;
55065;SDS011;40964;42.114;24.220;2022-07-29T04:36:35;9.13;;;6.15;;
55065;SDS011;40964;42.114;24.220;2022-07-29T04:39:01;7.93;;;5.82;;
55065;SDS011;40964;42.114;24.220;2022-07-29T04:41:30;10.27;;;5.78;;
55065;SDS011;40964;42.114;24.220;2022-07-29T04:43:56;9.82;;;6.05;;
55065;SDS011;40964;42.114;24.220;2022-07-29T04:46:22;10.45;;;5.65;;
55065;SDS011;40964;42.114;24.220;2022-07-29T04:48:47;8.52;;;6.10;;
55065;SDS011;40964;42.114;24.220;2022-07-29T04:51:14;10.35;;;6.07;;
55065;SDS011;40964;42.114;24.220;2022-07-29T04:53:41;8.90;;;6.03;;
55065;SDS011;40964;42.114;24.220;2022-07-29T04:56:07;11.13;;;6.20;;
55065;SDS011;40964;42.114;24.220;2022-07-29T04:58:35;12.52;;;6.47;;
55065;SDS011;40964;42.114;24.220;2022-07-29T05:01:01;8.15;;;5.40;;
55065;SDS011;40964;42.114;24.220;2022-07-29T05:03:26;5.80;;;4.85;;
55065;SDS011;40964;42.114;24.220;2022-07-29T05:05:52;7.65;;;4.82;;
55065;SDS011;40964;42.114;24.220;2022-07-29T05:08:18;10.93;;;5.93;;
55065;SDS011;40964;42.114;24.220;2022-07-29T05:10:43;8.32;;;5.60;;
55065;SDS011;40964;42.114;24.220;2022-07-29T05:13:09;9.13;;;5.65;;
55065;SDS011;40964;42.114;24.220;2022-07-29T05:15:34;13.73;;;8.30;;
55065;SDS011;40964;42.114;24.220;2022-07-29T05:18:01;11.82;;;6.63;;
55065;SDS011;40964;42.114;24.220;2022-07-29T05:20:27;9.60;;;6.28;;
55065;SDS011;40964;42.114;24.220;2022-07-29T05:22:57;9.40;;;6.22;;
55065;SDS011;40964;42.114;24.220;2022-07-29T05:25:24;9.75;;;6.18;;
55065;SDS011;40964;42.114;24.220;2022-07-29T05:27:53;11.27;;;6.63;;
55065;SDS011;40964;42.114;24.220;2022-07-29T05:30:19;10.57;;;6.47;;
55065;SDS011;40964;42.114;24.220;2022-07-29T05:32:45;11.68;;;6.60;;
55065;SDS011;40964;42.114;24.220;2022-07-29T05:35:11;8.35;;;5.82;;
55065;SDS011;40964;42.114;24.220;2022-07-29T05:37:37;8.25;;;6.30;;
55065;SDS011;40964;42.114;24.220;2022-07-29T05:40:03;7.65;;;6.20;;
55065;SDS011;40964;42.114;24.220;2022-07-29T05:42:29;10.00;;;6.47;;
55065;SDS011;40964;42.114;24.220;2022-07-29T05:44:54;10.82;;;6.22;;
55065;SDS011;40964;42.114;24.220;2022-07-29T05:47:20;9.60;;;6.15;;
55065;SDS011;40964;42.114;24.220;2022-07-29T05:49:46;9.85;;;6.50;;
55065;SDS011;40964;42.114;24.220;2022-07-29T05:52:12;11.98;;;7.15;;
55065;SDS011;40964;42.114;24.220;2022-07-29T05:54:40;8.70;;;5.90;;
55065;SDS011;40964;42.114;24.220;2022-07-29T05:57:07;10.98;;;6.53;;
55065;SDS011;40964;42.114;24.220;2022-07-29T05:59:36;7.10;;;5.75;;
55065;SDS011;40964;42.114;24.220;2022-07-29T06:02:02;10.18;;;6.97;;
55065;SDS011;40964;42.114;24.220;2022-07-29T06:04:30;7.97;;;5.95;;
55065;SDS011;40964;42.114;24.220;2022-07-29T06:06:56;9.73;;;6.60;;
55065;SDS011;40964;42.114;24.220;2022-07-29T06:09:22;8.63;;;6.45;;
55065;SDS011;40964;42.114;24.220;2022-07-29T06:11:47;9.02;;;6.47;;
55065;SDS011;40964;42.114;24.220;2022-07-29T06:14:13;13.20;;;7.18;;
55065;SDS011;40964;42.114;24.220;2022-07-29T06:16:39;7.85;;;6.28;;
55065;SDS011;40964;42.114;24.220;2022-07-29T06:19:04;10.27;;;6.10;;
55065;SDS011;40964;42.114;24.220;2022-07-29T06:21:30;9.35;;;6.78;;
55065;SDS011;40964;42.114;24.220;2022-07-29T06:23:56;12.40;;;6.47;;
55065;SDS011;40964;42.114;24.220;2022-07-29T06:26:21;10.48;;;6.53;;
55065;SDS011;40964;42.114;24.220;2022-07-29T06:28:48;8.55;;;6.50;;
55065;SDS011;40964;42.114;24.220;2022-07-29T06:31:13;8.25;;;6.85;;
55065;SDS011;40964;42.114;24.220;2022-07-29T06:33:39;14.35;;;6.88;;
55065;SDS011;40964;42.114;24.220;2022-07-29T06:36:05;10.15;;;6.35;;
55065;SDS011;40964;42.114;24.220;2022-07-29T06:38:32;9.98;;;6.78;;
55065;SDS011;40964;42.114;24.220;2022-07-29T06:40:58;8.93;;;6.30;;
55065;SDS011;40964;42.114;24.220;2022-07-29T06:46:12;8.38;;;6.60;;
55065;SDS011;40964;42.114;24.220;2022-07-29T06:48:40;8.65;;;6.50;;
55065;SDS011;40964;42.114;24.220;2022-07-29T06:51:07;9.27;;;6.57;;
55065;SDS011;40964;42.114;24.220;2022-07-29T06:53:33;7.45;;;6.13;;
55065;SDS011;40964;42.114;24.220;2022-07-29T06:56:00;8.95;;;6.35;;
55065;SDS011;40964;42.114;24.220;2022-07-29T06:58:26;7.88;;;6.45;;
55065;SDS011;40964;42.114;24.220;2022-07-29T07:00:52;12.18;;;6.00;;
55065;SDS011;40964;42.114;24.220;2022-07-29T07:03:18;8.55;;;6.15;;
55065;SDS011;40964;42.114;24.220;2022-07-29T07:05:45;11.60;;;6.40;;
55065;SDS011;40964;42.114;24.220;2022-07-29T07:08:12;8.40;;;6.45;;
55065;SDS011;40964;42.114;24.220;2022-07-29T07:10:38;7.85;;;6.18;;
55065;SDS011;40964;42.114;24.220;2022-07-29T07:13:04;7.78;;;6.30;;
55065;SDS011;40964;42.114;24.220;2022-07-29T07:15:30;11.25;;;6.45;;
55065;SDS011;40964;42.114;24.220;2022-07-29T07:17:56;8.15;;;6.20;;
55065;SDS011;40964;42.114;24.220;2022-07-29T07:20:23;8.30;;;6.68;;
55065;SDS011;40964;42.114;24.220;2022-07-29T07:22:49;8.07;;;6.10;;
55065;SDS011;40964;42.114;24.220;2022-07-29T07:25:14;8.02;;;6.72;;
55065;SDS011;40964;42.114;24.220;2022-07-29T07:27:42;10.20;;;6.68;;
55065;SDS011;40964;42.114;24.220;2022-07-29T07:30:08;7.93;;;6.20;;
55065;SDS011;40964;42.114;24.220;2022-07-29T07:32:34;11.02;;;6.20;;
55065;SDS011;40964;42.114;24.220;2022-07-29T07:35:00;7.70;;;5.75;;
55065;SDS011;40964;42.114;24.220;2022-07-29T07:37:26;7.13;;;6.30;;
55065;SDS011;40964;42.114;24.220;2022-07-29T07:39:51;6.78;;;5.55;;
55065;SDS011;40964;42.114;24.220;2022-07-29T07:42:18;9.25;;;6.35;;
55065;SDS011;40964;42.114;24.220;2022-07-29T07:44:44;8.77;;;6.50;;
55065;SDS011;40964;42.114;24.220;2022-07-29T07:47:11;8.45;;;6.13;;
55065;SDS011;40964;42.114;24.220;2022-07-29T07:49:37;7.43;;;5.38;;
55065;SDS011;40964;42.114;24.220;2022-07-29T07:52:03;10.40;;;6.05;;
55065;SDS011;40964;42.114;24.220;2022-07-29T07:54:29;9.07;;;6.45;;
55065;SDS011;40964;42.114;24.220;2022-07-29T07:56:55;12.00;;;7.78;;
55065;SDS011;40964;42.114;24.220;2022-07-29T07:59:20;10.77;;;6.53;;
55065;SDS011;40964;42.114;24.220;2022-07-29T08:01:46;7.35;;;6.28;;
55065;SDS011;40964;42.114;24.220;2022-07-29T08:04:11;11.18;;;5.93;;
55065;SDS011;40964;42.114;24.220;2022-07-29T08:06:37;6.35;;;5.70;;
55065;SDS011;40964;42.114;24.220;2022-07-29T08:09:03;8.68;;;5.00;;
55065;SDS011;40964;42.114;24.220;2022-07-29T08:11:29;8.32;;;5.85;;
55065;SDS011;40964;42.114;24.220;2022-07-29T08:13:55;6.95;;;5.70;;
55065;SDS011;40964;42.114;24.220;2022-07-29T08:16:21;7.32;;;5.72;;
55065;SDS011;40964;42.114;24.220;2022-07-29T08:18:47;6.28;;;5.30;;
55065;SDS011;40964;42.114;24.220;2022-07-29T08:21:13;7.80;;;5.70;;
55065;SDS011;40964;42.114;24.220;2022-07-29T08:23:39;8.10;;;5.10;;
55065;SDS011;40964;42.114;24.220;2022-07-29T08:26:11;7.30;;;5.35;;
55065;SDS011;40964;42.114;24.220;2022-07-29T08:28:38;6.55;;;5.63;;
55065;SDS011;40964;42.114;24.220;2022-07-29T08:31:11;6.63;;;4.95;;
55065;SDS011;40964;42.114;24.220;2022-07-29T08:33:38;6.93;;;5.25;;
55065;SDS011;40964;42.114;24.220;2022-07-29T08:36:04;7.43;;;4.72;;
55065;SDS011;40964;42.114;24.220;2022-07-29T08:38:31;6.05;;;5.13;;
55065;SDS011;40964;42.114;24.220;2022-07-29T08:40:57;5.93;;;4.65;;
55065;SDS011;40964;42.114;24.220;2022-07-29T08:43:23;6.70;;;4.90;;
55065;SDS011;40964;42.114;24.220;2022-07-29T08:45:49;6.60;;;4.70;;
55065;SDS011;40964;42.114;24.220;2022-07-29T08:48:17;10.10;;;4.78;;
55065;SDS011;40964;42.114;24.220;2022-07-29T08:50:45;7.32;;;5.00;;
55065;SDS011;40964;42.114;24.220;2022-07-29T08:53:13;5.72;;;4.40;;
55065;SDS011;40964;42.114;24.220;2022-07-29T08:55:47;5.85;;;5.20;;
55065;SDS011;40964;42.114;24.220;2022-07-29T08:58:15;5.75;;;4.93;;
55065;SDS011;40964;42.114;24.220;2022-07-29T09:00:42;7.15;;;4.95;;
55065;SDS011;40964;42.114;24.220;2022-07-29T09:03:09;5.40;;;4.68;;
55065;SDS011;40964;42.114;24.220;2022-07-29T09:05:43;8.75;;;5.18;;
55065;SDS011;40964;42.114;24.220;2022-07-29T09:08:13;8.77;;;4.85;;
55065;SDS011;40964;42.114;24.220;2022-07-29T09:10:39;6.03;;;5.07;;
55065;SDS011;40964;42.114;24.220;2022-07-29T09:13:05;6.80;;;5.22;;
55065;SDS011;40964;42.114;24.220;2022-07-29T09:15:31;6.50;;;5.70;;
55065;SDS011;40964;42.114;24.220;2022-07-29T09:17:56;7.22;;;5.15;;
55065;SDS011;40964;42.114;24.220;2022-07-29T09:20:26;9.55;;;5.20;;
55065;SDS011;40964;42.114;24.220;2022-07-29T09:23:11;5.57;;;4.90;;
55065;SDS011;40964;42.114;24.220;2022-07-29T09:25:39;6.38;;;5.00;;
55065;SDS011;40964;42.114;24.220;2022-07-29T09:28:09;7.45;;;5.55;;
55065;SDS011;40964;42.114;24.220;2022-07-29T09:30:52;5.43;;;4.63;;
55065;SDS011;40964;42.114;24.220;2022-07-29T09:33:19;5.18;;;4.72;;
55065;SDS011;40964;42.114;24.220;2022-07-29T09:35:46;5.63;;;5.07;;
55065;SDS011;40964;42.114;24.220;2022-07-29T09:38:24;7.05;;;5.25;;
55065;SDS011;40964;42.114;24.220;2022-07-29T09:40:59;5.95;;;4.78;;
55065;SDS011;40964;42.114;24.220;2022-07-29T09:43:26;7.32;;;5.43;;
55065;SDS011;40964;42.114;24.220;2022-07-29T09:45:52;7.40;;;5.03;;
55065;SDS011;40964;42.114;24.220;2022-07-29T09:48:19;6.05;;;4.70;;
55065;SDS011;40964;42.114;24.220;2022-07-29T09:50:47;5.80;;;5.10;;
55065;SDS011;40964;42.114;24.220;2022-07-29T09:56:12;5.40;;;4.80;;
55065;SDS011;40964;42.114;24.220;2022-07-29T09:58:39;5.90;;;4.28;;
55065;SDS011;40964;42.114;24.220;2022-07-29T10:01:04;6.15;;;4.57;;
55065;SDS011;40964;42.114;24.220;2022-07-29T10:03:30;6.70;;;4.88;;
55065;SDS011;40964;42.114;24.220;2022-07-29T10:06:09;5.32;;;4.60;;
55065;SDS011;40964;42.114;24.220;2022-07-29T10:08:36;5.13;;;4.50;;
55065;SDS011;40964;42.114;24.220;2022-07-29T10:11:09;7.40;;;4.60;;
55065;SDS011;40964;42.114;24.220;2022-07-29T10:13:36;4.75;;;4.13;;
55065;SDS011;40964;42.114;24.220;2022-07-29T10:16:01;6.07;;;4.45;;
55065;SDS011;40964;42.114;24.220;2022-07-29T10:18:27;5.20;;;4.15;;
55065;SDS011;40964;42.114;24.220;2022-07-29T10:20:53;10.05;;;4.90;;
55065;SDS011;40964;42.114;24.220;2022-07-29T10:23:19;9.07;;;4.47;;
55065;SDS011;40964;42.114;24.220;2022-07-29T10:25:45;4.25;;;3.85;;
55065;SDS011;40964;42.114;24.220;2022-07-29T10:28:11;4.18;;;3.72;;
55065;SDS011;40964;42.114;24.220;2022-07-29T10:30:37;4.57;;;4.18;;
55065;SDS011;40964;42.114;24.220;2022-07-29T10:44:02;4.40;;;3.80;;
55065;SDS011;40964;42.114;24.220;2022-07-29T10:46:35;8.68;;;4.05;;
55065;SDS011;40964;42.114;24.220;2022-07-29T10:54:36;4.63;;;3.80;;
55065;SDS011;40964;42.114;24.220;2022-07-29T10:57:29;6.88;;;3.90;;
55065;SDS011;40964;42.114;24.220;2022-07-29T11:05:11;4.30;;;3.40;;
55065;SDS011;40964;42.114;24.220;2022-07-29T11:10:48;3.90;;;3.50;;
55065;SDS011;40964;42.114;24.220;2022-07-29T11:16:09;4.32;;;3.88;;
55065;SDS011;40964;42.114;24.220;2022-07-29T11:18:34;4.38;;;3.95;;
55065;SDS011;40964;42.114;24.220;2022-07-29T11:21:00;5.70;;;4.07;;
55065;SDS011;40964;42.114;24.220;2022-07-29T11:39:38;4.05;;;3.65;;
55065;SDS011;40964;42.114;24.220;2022-07-29T11:44:54;6.45;;;3.25;;
55065;SDS011;40964;42.114;24.220;2022-07-29T11:47:24;4.20;;;3.40;;
55065;SDS011;40964;42.114;24.220;2022-07-29T11:49:51;3.92;;;3.53;;
55065;SDS011;40964;42.114;24.220;2022-07-29T11:52:20;7.45;;;3.20;;
55065;SDS011;40964;42.114;24.220;2022-07-29T11:54:50;4.32;;;3.63;;
55065;SDS011;40964;42.114;24.220;2022-07-29T11:57:16;3.88;;;3.47;;
55065;SDS011;40964;42.114;24.220;2022-07-29T11:59:44;3.92;;;3.35;;
55065;SDS011;40964;42.114;24.220;2022-07-29T12:02:11;3.42;;;3.13;;
55065;SDS011;40964;42.114;24.220;2022-07-29T12:04:48;4.25;;;3.10;;
55065;SDS011;40964;42.114;24.220;2022-07-29T12:07:17;5.93;;;3.28;;
55065;SDS011;40964;42.114;24.220;2022-07-29T12:09:50;3.60;;;2.88;;
55065;SDS011;40964;42.114;24.220;2022-07-29T12:12:17;4.43;;;2.95;;
55065;SDS011;40964;42.114;24.220;2022-07-29T12:14:43;3.30;;;2.97;;
55065;SDS011;40964;42.114;24.220;2022-07-29T12:17:28;7.80;;;3.10;;
55065;SDS011;40964;42.114;24.220;2022-07-29T12:19:55;4.60;;;2.80;;
55065;SDS011;40964;42.114;24.220;2022-07-29T12:22:55;5.55;;;2.70;;
55065;SDS011;40964;42.114;24.220;2022-07-29T12:25:14;3.30;;;2.72;;
55065;SDS011;40964;42.114;24.220;2022-07-29T12:27:42;5.78;;;3.20;;
55065;SDS011;40964;42.114;24.220;2022-07-29T12:30:14;6.43;;;2.90;;
55065;SDS011;40964;42.114;24.220;2022-07-29T12:32:47;10.43;;;3.40;;
55065;SDS011;40964;42.114;24.220;2022-07-29T12:37:40;2.60;;;2.40;;
55065;SDS011;40964;42.114;24.220;2022-07-29T12:40:07;5.60;;;3.15;;
55065;SDS011;40964;42.114;24.220;2022-07-29T12:42:35;4.43;;;2.85;;
55065;SDS011;40964;42.114;24.220;2022-07-29T12:45:01;3.95;;;2.90;;
55065;SDS011;40964;42.114;24.220;2022-07-29T12:47:27;3.30;;;2.95;;
55065;SDS011;40964;42.114;24.220;2022-07-29T12:50:09;4.35;;;2.97;;
55065;SDS011;40964;42.114;24.220;2022-07-29T12:52:37;3.33;;;2.58;;
55065;SDS011;40964;42.114;24.220;2022-07-29T12:55:02;2.95;;;2.67;;
55065;SDS011;40964;42.114;24.220;2022-07-29T12:57:28;3.20;;;2.95;;
55065;SDS011;40964;42.114;24.220;2022-07-29T13:02:30;5.68;;;2.90;;
55065;SDS011;40964;42.114;24.220;2022-07-29T13:04:56;2.80;;;2.60;;
55065;SDS011;40964;42.114;24.220;2022-07-29T13:07:24;5.72;;;3.00;;
55065;SDS011;40964;42.114;24.220;2022-07-29T13:09:52;2.70;;;2.50;;
55065;SDS011;40964;42.114;24.220;2022-07-29T13:12:18;2.70;;;2.50;;
55065;SDS011;40964;42.114;24.220;2022-07-29T13:14:46;3.47;;;2.75;;
55065;SDS011;40964;42.114;24.220;2022-07-29T13:17:17;6.05;;;2.70;;
55065;SDS011;40964;42.114;24.220;2022-07-29T13:20:26;2.58;;;2.38;;
55065;SDS011;40964;42.114;24.220;2022-07-29T13:22:49;2.70;;;2.50;;
55065;SDS011;40964;42.114;24.220;2022-07-29T13:25:22;2.83;;;2.58;;
55065;SDS011;40964;42.114;24.220;2022-07-29T13:27:54;2.92;;;2.65;;
55065;SDS011;40964;42.114;24.220;2022-07-29T13:30:20;2.85;;;2.60;;
55065;SDS011;40964;42.114;24.220;2022-07-29T13:32:46;3.33;;;2.95;;
55065;SDS011;40964;42.114;24.220;2022-07-29T13:35:12;3.63;;;2.90;;
55065;SDS011;40964;42.114;24.220;2022-07-29T13:37:38;10.88;;;3.25;;
55065;SDS011;40964;42.114;24.220;2022-07-29T13:40:05;3.17;;;2.80;;
55065;SDS011;40964;42.114;24.220;2022-07-29T13:42:32;6.85;;;3.33;;
55065;SDS011;40964;42.114;24.220;2022-07-29T13:44:57;4.63;;;3.28;;
55065;SDS011;40964;42.114;24.220;2022-07-29T13:47:23;6.95;;;3.08;;
55065;SDS011;40964;42.114;24.220;2022-07-29T13:49:49;3.10;;;2.90;;
55065;SDS011;40964;42.114;24.220;2022-07-29T13:52:15;4.25;;;3.05;;
55065;SDS011;40964;42.114;24.220;2022-07-29T13:54:41;3.50;;;3.20;;
55065;SDS011;40964;42.114;24.220;2022-07-29T13:57:08;4.68;;;3.30;;
55065;SDS011;40964;42.114;24.220;2022-07-29T13:59:35;7.43;;;3.38;;
55065;SDS011;40964;42.114;24.220;2022-07-29T14:02:01;5.03;;;3.13;;
55065;SDS011;40964;42.114;24.220;2022-07-29T14:04:27;4.00;;;3.60;;
55065;SDS011;40964;42.114;24.220;2022-07-29T14:06:52;4.55;;;3.33;;
55065;SDS011;40964;42.114;24.220;2022-07-29T14:09:18;3.60;;;3.00;;
55065;SDS011;40964;42.114;24.220;2022-07-29T14:11:43;5.05;;;3.33;;
55065;SDS011;40964;42.114;24.220;2022-07-29T14:14:10;3.83;;;2.88;;
55065;SDS011;40964;42.114;24.220;2022-07-29T14:16:36;4.45;;;3.33;;
55065;SDS011;40964;42.114;24.220;2022-07-29T14:19:02;3.50;;;3.17;;
55065;SDS011;40964;42.114;24.220;2022-07-29T14:21:28;6.22;;;3.25;;
55065;SDS011;40964;42.114;24.220;2022-07-29T14:23:53;4.88;;;3.40;;
55065;SDS011;40964;42.114;24.220;2022-07-29T14:26:20;8.88;;;3.67;;
55065;SDS011;40964;42.114;24.220;2022-07-29T14:28:47;3.30;;;2.90;;
55065;SDS011;40964;42.114;24.220;2022-07-29T14:31:13;3.30;;;3.00;;
55065;SDS011;40964;42.114;24.220;2022-07-29T14:33:39;3.22;;;2.92;;
55065;SDS011;40964;42.114;24.220;2022-07-29T14:36:05;3.33;;;2.67;;
55065;SDS011;40964;42.114;24.220;2022-07-29T14:38:30;4.55;;;3.17;;
55065;SDS011;40964;42.114;24.220;2022-07-29T14:40:56;4.47;;;2.97;;
55065;SDS011;40964;42.114;24.220;2022-07-29T14:43:21;3.83;;;3.45;;
55065;SDS011;40964;42.114;24.220;2022-07-29T14:45:47;4.93;;;4.00;;
55065;SDS011;40964;42.114;24.220;2022-07-29T14:48:13;4.25;;;3.00;;
55065;SDS011;40964;42.114;24.220;2022-07-29T14:50:38;4.25;;;3.25;;
55065;SDS011;40964;42.114;24.220;2022-07-29T14:53:04;4.00;;;3.60;;
55065;SDS011;40964;42.114;24.220;2022-07-29T14:55:30;3.85;;;3.10;;
55065;SDS011;40964;42.114;24.220;2022-07-29T14:57:55;3.22;;;2.95;;
55065;SDS011;40964;42.114;24.220;2022-07-29T15:00:21;3.60;;;3.30;;
55065;SDS011;40964;42.114;24.220;2022-07-29T15:02:47;4.50;;;2.97;;
55065;SDS011;40964;42.114;24.220;2022-07-29T15:05:13;3.28;;;2.97;;
55065;SDS011;40964;42.114;24.220;2022-07-29T15:07:38;5.20;;;3.30;;
55065;SDS011;40964;42.114;24.220;2022-07-29T15:10:04;3.63;;;3.25;;
55065;SDS011;40964;42.114;24.220;2022-07-29T15:12:30;4.18;;;3.25;;
55065;SDS011;40964;42.114;24.220;2022-07-29T15:14:56;4.05;;;3.08;;
55065;SDS011;40964;42.114;24.220;2022-07-29T15:17:22;4.57;;;3.42;;
55065;SDS011;40964;42.114;24.220;2022-07-29T15:19:47;6.63;;;3.22;;
55065;SDS011;40964;42.114;24.220;2022-07-29T15:22:13;6.25;;;3.22;;
55065;SDS011;40964;42.114;24.220;2022-07-29T15:24:39;7.85;;;3.83;;
55065;SDS011;40964;42.114;24.220;2022-07-29T15:27:05;3.95;;;3.13;;
55065;SDS011;40964;42.114;24.220;2022-07-29T15:29:30;3.60;;;3.30;;
55065;SDS011;40964;42.114;24.220;2022-07-29T15:31:59;4.18;;;3.47;;
55065;SDS011;40964;42.114;24.220;2022-07-29T15:34:24;13.95;;;10.43;;
55065;SDS011;40964;42.114;24.220;2022-07-29T15:36:50;12.40;;;8.25;;